sensor_id;sensor_type;location;lat;lon;timestamp;pressure;altitude;pressure_sealevel;temperature;humidity
47636;BME280;33364;50.766;15.338;2024-03-08T00:02:17;95285.09;;;-1.15;81.47
47636;BME280;33364;50.766;15.338;2024-03-08T00:04:43;95280.78;;;-1.27;81.74
47636;BME280;33364;50.766;15.338;2024-03-08T00:07:10;95271.69;;;-0.99;82.94
47636;BME280;33364;50.766;15.338;2024-03-08T00:09:36;95263.38;;;-1.07;81.75
47636;BME280;33364;50.766;15.338;2024-03-08T00:12:02;95271.94;;;-1.07;81.85
47636;BME280;33364;50.766;15.338;2024-03-08T00:14:27;95278.09;;;-1.01;81.69
47636;BME280;33364;50.766;15.338;2024-03-08T00:16:53;95271.06;;;-0.88;82.90
47636;BME280;33364;50.766;15.338;2024-03-08T00:19:19;95271.56;;;-0.72;83.57
47636;BME280;33364;50.766;15.338;2024-03-08T00:21:45;95268.63;;;-0.82;82.02
47636;BME280;33364;50.766;15.338;2024-03-08T00:24:11;95269.28;;;-0.94;82.21
47636;BME280;33364;50.766;15.338;2024-03-08T00:26:37;95272.88;;;-0.95;81.71
47636;BME280;33364;50.766;15.338;2024-03-08T00:29:03;95273.47;;;-0.93;81.55
47636;BME280;33364;50.766;15.338;2024-03-08T00:31:29;95267.94;;;-1.03;81.60
47636;BME280;33364;50.766;15.338;2024-03-08T00:33:56;95263.56;;;-1.09;81.18
47636;BME280;33364;50.766;15.338;2024-03-08T00:36:23;95265.59;;;-1.17;81.51
47636;BME280;33364;50.766;15.338;2024-03-08T00:38:48;95260.97;;;-1.09;81.79
47636;BME280;33364;50.766;15.338;2024-03-08T00:41:14;95258.00;;;-1.12;81.67
47636;BME280;33364;50.766;15.338;2024-03-08T00:43:40;95257.25;;;-1.26;81.43
47636;BME280;33364;50.766;15.338;2024-03-08T00:46:06;95259.28;;;-1.41;81.84
47636;BME280;33364;50.766;15.338;2024-03-08T00:48:31;95254.47;;;-1.31;83.93
47636;BME280;33364;50.766;15.338;2024-03-08T00:50:57;95249.25;;;-1.18;83.90
47636;BME280;33364;50.766;15.338;2024-03-08T00:53:23;95252.25;;;-1.21;82.74
47636;BME280;33364;50.766;15.338;2024-03-08T00:55:49;95245.31;;;-1.27;82.06
47636;BME280;33364;50.766;15.338;2024-03-08T00:58:15;95245.16;;;-1.45;81.77
47636;BME280;33364;50.766;15.338;2024-03-08T01:00:41;95238.75;;;-1.36;82.75
47636;BME280;33364;50.766;15.338;2024-03-08T01:03:07;95241.78;;;-1.52;81.73
47636;BME280;33364;50.766;15.338;2024-03-08T01:05:33;95241.41;;;-1.49;82.41
47636;BME280;33364;50.766;15.338;2024-03-08T01:08:00;95240.91;;;-1.27;83.33
47636;BME280;33364;50.766;15.338;2024-03-08T01:10:29;95238.97;;;-1.38;82.25
47636;BME280;33364;50.766;15.338;2024-03-08T01:12:54;95229.19;;;-1.42;82.63
47636;BME280;33364;50.766;15.338;2024-03-08T01:15:23;95229.59;;;-1.39;82.87
47636;BME280;33364;50.766;15.338;2024-03-08T01:17:49;95231.97;;;-1.31;83.95
47636;BME280;33364;50.766;15.338;2024-03-08T01:20:16;95224.59;;;-1.27;84.11
47636;BME280;33364;50.766;15.338;2024-03-08T01:22:43;95218.16;;;-1.18;83.85
47636;BME280;33364;50.766;15.338;2024-03-08T01:25:09;95216.25;;;-1.36;82.57
47636;BME280;33364;50.766;15.338;2024-03-08T01:27:35;95230.19;;;-1.37;82.59
47636;BME280;33364;50.766;15.338;2024-03-08T01:30:03;95219.81;;;-1.30;83.29
47636;BME280;33364;50.766;15.338;2024-03-08T01:32:29;95226.78;;;-1.37;82.61
47636;BME280;33364;50.766;15.338;2024-03-08T01:34:55;95217.84;;;-1.41;82.77
47636;BME280;33364;50.766;15.338;2024-03-08T01:37:20;95215.44;;;-1.43;82.83
47636;BME280;33364;50.766;15.338;2024-03-08T01:39:46;95212.28;;;-1.38;83.00
47636;BME280;33364;50.766;15.338;2024-03-08T01:42:12;95205.44;;;-1.26;83.55
47636;BME280;33364;50.766;15.338;2024-03-08T01:44:40;95216.25;;;-1.42;82.16
47636;BME280;33364;50.766;15.338;2024-03-08T01:47:06;95213.91;;;-1.50;82.21
47636;BME280;33364;50.766;15.338;2024-03-08T01:49:33;95207.72;;;-1.49;83.50
47636;BME280;33364;50.766;15.338;2024-03-08T01:51:58;95211.47;;;-1.39;83.57
47636;BME280;33364;50.766;15.338;2024-03-08T01:54:26;95209.53;;;-1.56;82.50
47636;BME280;33364;50.766;15.338;2024-03-08T01:56:52;95213.97;;;-1.77;82.15
47636;BME280;33364;50.766;15.338;2024-03-08T01:59:19;95208.41;;;-1.80;83.38
47636;BME280;33364;50.766;15.338;2024-03-08T02:01:44;95217.97;;;-1.81;83.80
47636;BME280;33364;50.766;15.338;2024-03-08T02:04:11;95211.19;;;-1.88;83.33
47636;BME280;33364;50.766;15.338;2024-03-08T02:06:36;95209.22;;;-1.86;83.70
47636;BME280;33364;50.766;15.338;2024-03-08T02:09:03;95205.63;;;-1.92;84.13
47636;BME280;33364;50.766;15.338;2024-03-08T02:11:33;95210.59;;;-1.90;84.25
47636;BME280;33364;50.766;15.338;2024-03-08T02:14:00;95212.41;;;-1.91;83.86
47636;BME280;33364;50.766;15.338;2024-03-08T02:16:25;95210.81;;;-1.92;84.33
47636;BME280;33364;50.766;15.338;2024-03-08T02:18:51;95206.38;;;-1.72;85.27
47636;BME280;33364;50.766;15.338;2024-03-08T02:21:18;95199.63;;;-1.73;84.82
47636;BME280;33364;50.766;15.338;2024-03-08T02:23:44;95202.81;;;-1.77;84.21
47636;BME280;33364;50.766;15.338;2024-03-08T02:26:10;95199.25;;;-1.76;83.89
47636;BME280;33364;50.766;15.338;2024-03-08T02:28:36;95191.47;;;-1.69;84.61
47636;BME280;33364;50.766;15.338;2024-03-08T02:31:01;95190.78;;;-1.45;85.75
47636;BME280;33364;50.766;15.338;2024-03-08T02:33:28;95194.38;;;-1.53;84.24
47636;BME280;33364;50.766;15.338;2024-03-08T02:35:54;95197.81;;;-1.59;83.59
47636;BME280;33364;50.766;15.338;2024-03-08T02:38:22;95184.28;;;-1.74;83.87
47636;BME280;33364;50.766;15.338;2024-03-08T02:40:51;95189.28;;;-1.79;84.02
47636;BME280;33364;50.766;15.338;2024-03-08T02:43:19;95189.88;;;-1.84;84.00
47636;BME280;33364;50.766;15.338;2024-03-08T02:45:45;95179.34;;;-1.89;84.27
47636;BME280;33364;50.766;15.338;2024-03-08T02:48:12;95193.50;;;-1.98;84.63
47636;BME280;33364;50.766;15.338;2024-03-08T02:50:38;95185.50;;;-1.90;85.50
47636;BME280;33364;50.766;15.338;2024-03-08T02:53:06;95188.91;;;-1.83;85.16
47636;BME280;33364;50.766;15.338;2024-03-08T02:55:32;95190.13;;;-2.05;83.44
47636;BME280;33364;50.766;15.338;2024-03-08T02:58:02;95184.75;;;-2.17;84.04
47636;BME280;33364;50.766;15.338;2024-03-08T03:00:29;95171.63;;;-2.02;85.66
47636;BME280;33364;50.766;15.338;2024-03-08T03:02:57;95183.78;;;-2.09;84.71
47636;BME280;33364;50.766;15.338;2024-03-08T03:05:23;95182.59;;;-2.06;85.39
47636;BME280;33364;50.766;15.338;2024-03-08T03:07:50;95183.28;;;-1.80;86.22
47636;BME280;33364;50.766;15.338;2024-03-08T03:10:19;95181.75;;;-1.87;84.65
47636;BME280;33364;50.766;15.338;2024-03-08T03:12:45;95187.94;;;-2.01;84.15
47636;BME280;33364;50.766;15.338;2024-03-08T03:15:12;95181.56;;;-1.99;84.87
47636;BME280;33364;50.766;15.338;2024-03-08T03:17:39;95186.75;;;-2.05;84.33
47636;BME280;33364;50.766;15.338;2024-03-08T03:20:08;95174.78;;;-2.00;84.61
47636;BME280;33364;50.766;15.338;2024-03-08T03:22:40;95178.97;;;-1.99;85.29
47636;BME280;33364;50.766;15.338;2024-03-08T03:25:09;95177.97;;;-1.98;85.28
47636;BME280;33364;50.766;15.338;2024-03-08T03:27:35;95176.56;;;-1.94;85.09
47636;BME280;33364;50.766;15.338;2024-03-08T03:30:02;95177.19;;;-1.92;84.81
47636;BME280;33364;50.766;15.338;2024-03-08T03:32:50;95176.56;;;-1.94;84.49
47636;BME280;33364;50.766;15.338;2024-03-08T03:35:19;95170.22;;;-1.98;84.46
47636;BME280;33364;50.766;15.338;2024-03-08T03:37:46;95164.19;;;-1.79;85.53
47636;BME280;33364;50.766;15.338;2024-03-08T03:40:41;95164.25;;;-1.92;84.22
47636;BME280;33364;50.766;15.338;2024-03-08T03:43:07;95160.66;;;-1.91;84.75
47636;BME280;33364;50.766;15.338;2024-03-08T03:45:35;95162.66;;;-1.93;84.55
47636;BME280;33364;50.766;15.338;2024-03-08T03:48:05;95171.78;;;-1.90;84.60
47636;BME280;33364;50.766;15.338;2024-03-08T03:50:38;95172.13;;;-1.74;85.22
47636;BME280;33364;50.766;15.338;2024-03-08T03:53:04;95172.81;;;-1.91;83.75
47636;BME280;33364;50.766;15.338;2024-03-08T03:55:33;95170.03;;;-1.96;83.63
47636;BME280;33364;50.766;15.338;2024-03-08T03:57:59;95164.59;;;-1.82;85.52
47636;BME280;33364;50.766;15.338;2024-03-08T04:00:26;95166.03;;;-1.99;84.41
47636;BME280;33364;50.766;15.338;2024-03-08T04:02:52;95162.25;;;-1.96;84.80
47636;BME280;33364;50.766;15.338;2024-03-08T04:05:18;95156.06;;;-1.89;85.06
47636;BME280;33364;50.766;15.338;2024-03-08T04:07:44;95159.69;;;-2.03;84.30
47636;BME280;33364;50.766;15.338;2024-03-08T04:10:11;95153.13;;;-2.12;84.12
47636;BME280;33364;50.766;15.338;2024-03-08T04:12:37;95157.47;;;-1.93;85.37
47636;BME280;33364;50.766;15.338;2024-03-08T04:15:04;95158.88;;;-1.97;84.89
47636;BME280;33364;50.766;15.338;2024-03-08T04:17:36;95159.50;;;-2.08;84.04
47636;BME280;33364;50.766;15.338;2024-03-08T04:20:03;95156.91;;;-2.08;83.96
47636;BME280;33364;50.766;15.338;2024-03-08T04:22:35;95162.09;;;-2.21;83.21
47636;BME280;33364;50.766;15.338;2024-03-08T04:25:02;95159.91;;;-2.24;83.89
47636;BME280;33364;50.766;15.338;2024-03-08T04:27:28;95149.19;;;-2.28;84.69
47636;BME280;33364;50.766;15.338;2024-03-08T04:29:53;95145.19;;;-2.17;85.84
47636;BME280;33364;50.766;15.338;2024-03-08T04:32:19;95150.75;;;-2.07;85.83
47636;BME280;33364;50.766;15.338;2024-03-08T04:34:45;95150.13;;;-2.09;85.00
47636;BME280;33364;50.766;15.338;2024-03-08T04:37:10;95146.56;;;-2.08;85.06
47636;BME280;33364;50.766;15.338;2024-03-08T04:39:38;95152.75;;;-2.29;84.20
47636;BME280;33364;50.766;15.338;2024-03-08T04:42:05;95151.13;;;-2.10;85.51
47636;BME280;33364;50.766;15.338;2024-03-08T04:44:36;95144.97;;;-2.09;85.04
47636;BME280;33364;50.766;15.338;2024-03-08T04:47:03;95144.16;;;-2.03;84.88
47636;BME280;33364;50.766;15.338;2024-03-08T04:49:34;95142.38;;;-2.16;83.70
47636;BME280;33364;50.766;15.338;2024-03-08T04:52:04;95138.38;;;-2.05;84.47
47636;BME280;33364;50.766;15.338;2024-03-08T04:54:32;95138.38;;;-2.05;84.16
47636;BME280;33364;50.766;15.338;2024-03-08T04:56:58;95134.44;;;-2.14;83.64
47636;BME280;33364;50.766;15.338;2024-03-08T04:59:27;95148.97;;;-2.20;83.88
47636;BME280;33364;50.766;15.338;2024-03-08T05:01:53;95148.38;;;-2.28;83.66
47636;BME280;33364;50.766;15.338;2024-03-08T05:04:19;95142.22;;;-2.40;83.83
47636;BME280;33364;50.766;15.338;2024-03-08T05:06:44;95147.59;;;-2.29;85.42
47636;BME280;33364;50.766;15.338;2024-03-08T05:09:10;95137.63;;;-2.25;84.98
47636;BME280;33364;50.766;15.338;2024-03-08T05:11:40;95147.59;;;-2.29;84.28
47636;BME280;33364;50.766;15.338;2024-03-08T05:14:06;95139.97;;;-2.10;85.93
47636;BME280;33364;50.766;15.338;2024-03-08T05:16:31;95145.38;;;-2.25;85.08
47636;BME280;33364;50.766;15.338;2024-03-08T05:18:57;95141.44;;;-2.34;84.08
47636;BME280;33364;50.766;15.338;2024-03-08T05:21:23;95145.19;;;-2.37;83.88
47636;BME280;33364;50.766;15.338;2024-03-08T05:23:50;95136.63;;;-2.37;84.52
47636;BME280;33364;50.766;15.338;2024-03-08T05:26:16;95138.84;;;-2.34;84.82
47636;BME280;33364;50.766;15.338;2024-03-08T05:28:42;95135.66;;;-2.36;84.66
47636;BME280;33364;50.766;15.338;2024-03-08T05:31:08;95133.66;;;-2.34;83.87
47636;BME280;33364;50.766;15.338;2024-03-08T05:33:34;95136.44;;;-2.29;84.68
47636;BME280;33364;50.766;15.338;2024-03-08T05:36:00;95130.69;;;-2.44;84.71
47636;BME280;33364;50.766;15.338;2024-03-08T05:38:29;95133.63;;;-2.21;85.92
47636;BME280;33364;50.766;15.338;2024-03-08T05:40:54;95123.28;;;-2.08;85.53
47636;BME280;33364;50.766;15.338;2024-03-08T05:43:20;95126.09;;;-2.29;84.08
47636;BME280;33364;50.766;15.338;2024-03-08T05:45:46;95127.47;;;-2.07;85.64
47636;BME280;33364;50.766;15.338;2024-03-08T05:48:13;95128.44;;;-2.08;84.88
47636;BME280;33364;50.766;15.338;2024-03-08T05:50:39;95114.09;;;-1.91;85.69
47636;BME280;33364;50.766;15.338;2024-03-08T05:53:05;95121.44;;;-1.94;85.03
47636;BME280;33364;50.766;15.338;2024-03-08T05:55:32;95120.25;;;-1.98;84.22
47636;BME280;33364;50.766;15.338;2024-03-08T05:58:01;95122.91;;;-2.31;83.03
47636;BME280;33364;50.766;15.338;2024-03-08T06:00:27;95121.53;;;-2.47;83.61
47636;BME280;33364;50.766;15.338;2024-03-08T06:02:53;95120.13;;;-2.43;84.83
47636;BME280;33364;50.766;15.338;2024-03-08T06:05:19;95122.91;;;-2.38;84.86
47636;BME280;33364;50.766;15.338;2024-03-08T06:07:45;95119.31;;;-2.17;86.24
47636;BME280;33364;50.766;15.338;2024-03-08T06:10:11;95126.06;;;-2.16;85.93
47636;BME280;33364;50.766;15.338;2024-03-08T06:12:38;95125.47;;;-2.11;85.16
47636;BME280;33364;50.766;15.338;2024-03-08T06:15:08;95124.13;;;-2.34;84.34
47636;BME280;33364;50.766;15.338;2024-03-08T06:17:41;95124.91;;;-2.53;84.20
47636;BME280;33364;50.766;15.338;2024-03-08T06:20:07;95121.31;;;-2.32;86.16
47636;BME280;33364;50.766;15.338;2024-03-08T06:22:37;95121.31;;;-2.32;85.91
47636;BME280;33364;50.766;15.338;2024-03-08T06:25:09;95123.53;;;-2.36;85.50
47636;BME280;33364;50.766;15.338;2024-03-08T06:27:36;95123.31;;;-2.28;85.70
47636;BME280;33364;50.766;15.338;2024-03-08T06:30:02;95121.72;;;-2.22;85.45
47636;BME280;33364;50.766;15.338;2024-03-08T06:32:30;95130.06;;;-2.14;85.63
47636;BME280;33364;50.766;15.338;2024-03-08T06:35:01;95126.47;;;-2.13;85.46
47636;BME280;33364;50.766;15.338;2024-03-08T06:37:28;95119.25;;;-1.91;85.97
47636;BME280;33364;50.766;15.338;2024-03-08T06:39:53;95113.06;;;-1.90;85.10
47636;BME280;33364;50.766;15.338;2024-03-08T06:42:21;95121.19;;;-1.80;85.34
47636;BME280;33364;50.766;15.338;2024-03-08T06:44:46;95117.25;;;-1.89;84.70
47636;BME280;33364;50.766;15.338;2024-03-08T06:47:15;95116.84;;;-1.86;85.26
47636;BME280;33364;50.766;15.338;2024-03-08T06:49:44;95120.41;;;-1.80;85.55
47636;BME280;33364;50.766;15.338;2024-03-08T06:52:10;95112.78;;;-1.68;85.64
47636;BME280;33364;50.766;15.338;2024-03-08T06:54:37;95121.06;;;-1.53;85.78
47636;BME280;33364;50.766;15.338;2024-03-08T06:57:03;95117.44;;;-1.39;85.52
47636;BME280;33364;50.766;15.338;2024-03-08T06:59:29;95121.66;;;-1.07;86.17
47636;BME280;33364;50.766;15.338;2024-03-08T07:01:55;95124.41;;;-1.02;85.33
47636;BME280;33364;50.766;15.338;2024-03-08T07:04:21;95121.72;;;-0.89;84.74
47636;BME280;33364;50.766;15.338;2024-03-08T07:06:47;95122.09;;;-0.85;84.46
47636;BME280;33364;50.766;15.338;2024-03-08T07:09:15;95121.03;;;-0.77;84.25
47636;BME280;33364;50.766;15.338;2024-03-08T07:11:44;95119.03;;;-0.75;83.54
47636;BME280;33364;50.766;15.338;2024-03-08T07:14:10;95122.59;;;-0.70;83.71
47636;BME280;33364;50.766;15.338;2024-03-08T07:16:35;95116.78;;;-0.47;84.23
47636;BME280;33364;50.766;15.338;2024-03-08T07:19:01;95125.84;;;-0.56;83.61
47636;BME280;33364;50.766;15.338;2024-03-08T07:21:28;95130.56;;;-0.22;82.58
47636;BME280;33364;50.766;15.338;2024-03-08T07:23:54;95122.13;;;0.01;82.45
47636;BME280;33364;50.766;15.338;2024-03-08T07:26:26;95121.88;;;0.09;81.18
47636;BME280;33364;50.766;15.338;2024-03-08T07:28:52;95119.13;;;0.40;81.33
47636;BME280;33364;50.766;15.338;2024-03-08T07:31:18;95121.72;;;0.70;80.27
47636;BME280;33364;50.766;15.338;2024-03-08T07:34:10;95118.44;;;0.93;79.90
47636;BME280;33364;50.766;15.338;2024-03-08T07:36:37;95116.31;;;1.02;79.07
47636;BME280;33364;50.766;15.338;2024-03-08T07:39:02;95112.63;;;1.21;78.26
47636;BME280;33364;50.766;15.338;2024-03-08T07:41:31;95118.59;;;1.63;77.00
47636;BME280;33364;50.766;15.338;2024-03-08T07:43:56;95116.88;;;1.92;76.95
47636;BME280;33364;50.766;15.338;2024-03-08T07:46:22;95114.16;;;2.10;76.29
47636;BME280;33364;50.766;15.338;2024-03-08T07:48:48;95115.00;;;2.39;75.28
47636;BME280;33364;50.766;15.338;2024-03-08T07:51:17;95107.81;;;2.58;74.88
47636;BME280;33364;50.766;15.338;2024-03-08T07:53:46;95112.25;;;2.57;73.80
47636;BME280;33364;50.766;15.338;2024-03-08T07:56:11;95101.84;;;2.85;73.17
47636;BME280;33364;50.766;15.338;2024-03-08T07:58:39;95107.91;;;2.91;72.50
47636;BME280;33364;50.766;15.338;2024-03-08T08:01:16;95099.63;;;2.94;70.95
47636;BME280;33364;50.766;15.338;2024-03-08T08:03:41;95092.72;;;3.16;69.85
47636;BME280;33364;50.766;15.338;2024-03-08T08:06:07;95094.22;;;3.29;68.87
47636;BME280;33364;50.766;15.338;2024-03-08T08:08:33;95102.53;;;3.76;66.76
47636;BME280;33364;50.766;15.338;2024-03-08T08:10:59;95099.22;;;3.80;65.21
47636;BME280;33364;50.766;15.338;2024-03-08T08:13:26;95091.56;;;4.12;65.19
47636;BME280;33364;50.766;15.338;2024-03-08T08:15:53;95087.44;;;4.60;64.50
47636;BME280;33364;50.766;15.338;2024-03-08T08:18:19;95078.34;;;4.67;62.94
47636;BME280;33364;50.766;15.338;2024-03-08T08:20:47;95074.69;;;4.90;62.63
47636;BME280;33364;50.766;15.338;2024-03-08T08:23:13;95082.09;;;5.30;63.28
47636;BME280;33364;50.766;15.338;2024-03-08T08:25:39;95078.13;;;5.55;63.27
47636;BME280;33364;50.766;15.338;2024-03-08T08:28:05;95076.47;;;5.43;61.33
47636;BME280;33364;50.766;15.338;2024-03-08T08:30:31;95082.34;;;5.61;59.26
47636;BME280;33364;50.766;15.338;2024-03-08T08:32:58;95079.44;;;5.57;58.65
47636;BME280;33364;50.766;15.338;2024-03-08T08:35:26;95075.69;;;5.43;58.76
47636;BME280;33364;50.766;15.338;2024-03-08T08:37:52;95083.19;;;5.66;57.97
47636;BME280;33364;50.766;15.338;2024-03-08T08:40:18;95082.88;;;5.94;56.74
47636;BME280;33364;50.766;15.338;2024-03-08T08:42:44;95080.50;;;6.45;56.36
47636;BME280;33364;50.766;15.338;2024-03-08T08:45:12;95075.41;;;6.81;54.92
47636;BME280;33364;50.766;15.338;2024-03-08T08:47:37;95072.50;;;6.82;55.02
47636;BME280;33364;50.766;15.338;2024-03-08T08:50:04;95081.25;;;7.08;53.78
47636;BME280;33364;50.766;15.338;2024-03-08T08:52:33;95069.44;;;7.31;54.16
47636;BME280;33364;50.766;15.338;2024-03-08T08:55:00;95077.63;;;7.64;53.32
47636;BME280;33364;50.766;15.338;2024-03-08T08:57:26;95081.78;;;7.96;51.87
47636;BME280;33364;50.766;15.338;2024-03-08T08:59:53;95069.97;;;7.88;51.21
47636;BME280;33364;50.766;15.338;2024-03-08T09:02:20;95072.84;;;7.97;52.38
47636;BME280;33364;50.766;15.338;2024-03-08T09:04:46;95070.75;;;7.94;51.81
47636;BME280;33364;50.766;15.338;2024-03-08T09:07:13;95075.75;;;7.85;52.11
47636;BME280;33364;50.766;15.338;2024-03-08T09:09:39;95063.94;;;7.47;52.72
47636;BME280;33364;50.766;15.338;2024-03-08T09:12:05;95066.03;;;7.81;52.25
47636;BME280;33364;50.766;15.338;2024-03-08T09:14:31;95062.34;;;7.97;52.41
47636;BME280;33364;50.766;15.338;2024-03-08T09:16:57;95061.31;;;7.93;51.27
47636;BME280;33364;50.766;15.338;2024-03-08T09:19:22;95057.84;;;8.02;51.72
47636;BME280;33364;50.766;15.338;2024-03-08T09:21:51;95062.38;;;7.67;50.79
47636;BME280;33364;50.766;15.338;2024-03-08T09:24:17;95062.38;;;7.51;52.37
47636;BME280;33364;50.766;15.338;2024-03-08T09:26:43;95061.28;;;8.08;51.64
47636;BME280;33364;50.766;15.338;2024-03-08T09:29:09;95054.94;;;8.04;49.47
47636;BME280;33364;50.766;15.338;2024-03-08T09:31:36;95058.88;;;8.12;51.26
47636;BME280;33364;50.766;15.338;2024-03-08T09:34:03;95057.97;;;8.52;50.00
47636;BME280;33364;50.766;15.338;2024-03-08T09:36:29;95051.75;;;8.27;51.72
47636;BME280;33364;50.766;15.338;2024-03-08T09:38:57;95059.38;;;8.39;49.64
47636;BME280;33364;50.766;15.338;2024-03-08T09:41:22;95065.47;;;8.14;50.18
47636;BME280;33364;50.766;15.338;2024-03-08T09:43:48;95055.72;;;8.84;49.79
47636;BME280;33364;50.766;15.338;2024-03-08T09:46:14;95059.28;;;9.13;49.99
47636;BME280;33364;50.766;15.338;2024-03-08T09:48:41;95054.69;;;8.05;50.13
47636;BME280;33364;50.766;15.338;2024-03-08T09:51:07;95056.84;;;8.73;49.27
47636;BME280;33364;50.766;15.338;2024-03-08T09:53:33;95050.59;;;9.08;48.69
47636;BME280;33364;50.766;15.338;2024-03-08T09:55:58;95051.28;;;9.23;49.77
47636;BME280;33364;50.766;15.338;2024-03-08T09:58:25;95051.91;;;9.10;50.13
47636;BME280;33364;50.766;15.338;2024-03-08T10:00:53;95054.50;;;9.15;49.48
47636;BME280;33364;50.766;15.338;2024-03-08T10:03:20;95053.47;;;8.62;50.84
47636;BME280;33364;50.766;15.338;2024-03-08T10:05:45;95051.06;;;9.20;50.57
47636;BME280;33364;50.766;15.338;2024-03-08T10:08:12;95055.94;;;9.70;49.03
47636;BME280;33364;50.766;15.338;2024-03-08T10:10:39;95049.56;;;9.77;49.47
47636;BME280;33364;50.766;15.338;2024-03-08T10:13:09;95049.31;;;9.44;48.86
47636;BME280;33364;50.766;15.338;2024-03-08T10:15:39;95055.16;;;9.70;48.42
47636;BME280;33364;50.766;15.338;2024-03-08T10:18:06;95046.94;;;10.00;48.04
47636;BME280;33364;50.766;15.338;2024-03-08T10:20:32;95049.25;;;9.83;47.80
47636;BME280;33364;50.766;15.338;2024-03-08T10:23:02;95048.47;;;10.06;46.31
47636;BME280;33364;50.766;15.338;2024-03-08T10:25:33;95044.28;;;10.53;46.87
47636;BME280;33364;50.766;15.338;2024-03-08T10:28:03;95035.09;;;11.12;45.45
47636;BME280;33364;50.766;15.338;2024-03-08T10:30:30;95044.63;;;10.70;46.40
47636;BME280;33364;50.766;15.338;2024-03-08T10:32:56;95044.09;;;9.97;46.98
47636;BME280;33364;50.766;15.338;2024-03-08T10:35:22;95039.28;;;10.75;47.17
47636;BME280;33364;50.766;15.338;2024-03-08T10:37:50;95056.50;;;10.91;43.89
47636;BME280;33364;50.766;15.338;2024-03-08T10:40:24;95052.56;;;11.26;43.48
47636;BME280;33364;50.766;15.338;2024-03-08T10:45:31;95047.16;;;11.18;42.97
47636;BME280;33364;50.766;15.338;2024-03-08T10:50:48;95047.19;;;11.50;43.64
47636;BME280;33364;50.766;15.338;2024-03-08T10:53:18;95047.47;;;11.67;42.32
47636;BME280;33364;50.766;15.338;2024-03-08T10:55:46;95045.00;;;11.90;42.48
47636;BME280;33364;50.766;15.338;2024-03-08T10:58:13;95052.75;;;11.67;43.06
47636;BME280;33364;50.766;15.338;2024-03-08T11:00:39;95054.94;;;11.28;44.50
47636;BME280;33364;50.766;15.338;2024-03-08T11:03:07;95047.94;;;10.99;43.76
47636;BME280;33364;50.766;15.338;2024-03-08T11:05:40;95044.81;;;10.97;44.78
47636;BME280;33364;50.766;15.338;2024-03-08T11:08:20;95035.00;;;11.87;44.54
47636;BME280;33364;50.766;15.338;2024-03-08T11:10:54;95047.38;;;11.02;43.78
47636;BME280;33364;50.766;15.338;2024-03-08T11:15:59;95039.38;;;11.59;44.80
47636;BME280;33364;50.766;15.338;2024-03-08T11:18:26;95047.63;;;11.57;43.86
47636;BME280;33364;50.766;15.338;2024-03-08T11:20:55;95035.09;;;11.12;43.62
47636;BME280;33364;50.766;15.338;2024-03-08T11:23:24;95040.06;;;10.94;44.18
47636;BME280;33364;50.766;15.338;2024-03-08T11:25:51;95042.59;;;10.20;46.34
47636;BME280;33364;50.766;15.338;2024-03-08T11:28:19;95038.06;;;11.05;45.85
47636;BME280;33364;50.766;15.338;2024-03-08T11:33:35;95030.50;;;10.80;44.33
47636;BME280;33364;50.766;15.338;2024-03-08T11:38:46;95025.78;;;10.05;46.33
47636;BME280;33364;50.766;15.338;2024-03-08T11:41:16;95019.16;;;10.98;46.13
47636;BME280;33364;50.766;15.338;2024-03-08T11:43:43;95013.31;;;11.20;43.19
47636;BME280;33364;50.766;15.338;2024-03-08T11:46:14;95010.97;;;10.99;43.47
47636;BME280;33364;50.766;15.338;2024-03-08T11:48:41;95016.88;;;11.10;44.16
47636;BME280;33364;50.766;15.338;2024-03-08T11:51:12;95015.06;;;11.06;44.70
47636;BME280;33364;50.766;15.338;2024-03-08T11:53:39;94993.31;;;10.95;44.98
47636;BME280;33364;50.766;15.338;2024-03-08T11:58:33;94998.75;;;11.04;44.50
47636;BME280;33364;50.766;15.338;2024-03-08T12:01:05;94999.13;;;11.29;45.30
47636;BME280;33364;50.766;15.338;2024-03-08T12:03:31;95000.09;;;11.20;43.88
47636;BME280;33364;50.766;15.338;2024-03-08T12:06:00;94996.88;;;9.71;46.69
47636;BME280;33364;50.766;15.338;2024-03-08T12:08:27;94991.75;;;10.09;48.69
47636;BME280;33364;50.766;15.338;2024-03-08T12:10:54;94990.81;;;11.04;45.51
47636;BME280;33364;50.766;15.338;2024-03-08T12:13:29;94976.59;;;11.64;45.60
47636;BME280;33364;50.766;15.338;2024-03-08T12:16:02;94983.03;;;11.44;44.86
47636;BME280;33364;50.766;15.338;2024-03-08T12:18:36;94983.81;;;11.13;44.92
47636;BME280;33364;50.766;15.338;2024-03-08T12:21:10;94984.09;;;10.55;44.65
47636;BME280;33364;50.766;15.338;2024-03-08T12:23:37;94977.16;;;10.96;44.92
47636;BME280;33364;50.766;15.338;2024-03-08T12:26:18;94980.50;;;11.53;43.90
47636;BME280;33364;50.766;15.338;2024-03-08T12:28:45;94975.03;;;11.96;43.88
47636;BME280;33364;50.766;15.338;2024-03-08T12:31:14;94979.31;;;11.46;44.45
47636;BME280;33364;50.766;15.338;2024-03-08T12:33:54;94976.38;;;10.96;46.70
47636;BME280;33364;50.766;15.338;2024-03-08T12:36:21;94973.03;;;10.72;44.03
47636;BME280;33364;50.766;15.338;2024-03-08T12:38:48;94966.63;;;11.29;44.16
47636;BME280;33364;50.766;15.338;2024-03-08T12:41:14;94964.94;;;11.52;44.25
47636;BME280;33364;50.766;15.338;2024-03-08T12:43:41;94978.75;;;10.97;43.96
47636;BME280;33364;50.766;15.338;2024-03-08T12:46:07;94960.34;;;11.25;44.91
47636;BME280;33364;50.766;15.338;2024-03-08T12:48:35;94956.06;;;11.29;44.62
47636;BME280;33364;50.766;15.338;2024-03-08T12:51:06;94953.59;;;11.65;44.00
47636;BME280;33364;50.766;15.338;2024-03-08T12:53:33;94947.00;;;11.16;44.63
47636;BME280;33364;50.766;15.338;2024-03-08T12:55:58;94950.84;;;10.73;46.35
47636;BME280;33364;50.766;15.338;2024-03-08T12:58:24;94950.75;;;10.96;45.79
47636;BME280;33364;50.766;15.338;2024-03-08T13:00:51;94943.16;;;11.09;46.15
47636;BME280;33364;50.766;15.338;2024-03-08T13:03:17;94941.69;;;10.65;45.90
47636;BME280;33364;50.766;15.338;2024-03-08T13:05:43;94944.50;;;10.31;45.97
47636;BME280;33364;50.766;15.338;2024-03-08T13:08:09;94933.97;;;10.87;46.22
47636;BME280;33364;50.766;15.338;2024-03-08T13:10:39;94929.47;;;10.69;46.52